createdAt,value
2016-11-12T00:00:51.486Z,38.2
2016-11-12T00:05:55.570Z,38.3
2016-11-12T00:10:59.651Z,38.3
2016-11-12T00:16:03.738Z,38.3
2016-11-12T00:21:07.822Z,38.2
2016-11-12T00:26:12.250Z,38.2
2016-11-12T00:31:16.336Z,38.2
2016-11-12T00:36:20.419Z,38.2
2016-11-12T00:41:24.512Z,38.1
2016-11-12T00:46:28.596Z,38.1
2016-11-12T00:51:32.680Z,38
2016-11-12T00:56:37.091Z,38.1
2016-11-12T01:01:41.505Z,38
2016-11-12T01:06:46.262Z,38
2016-11-12T01:11:50.682Z,38
2016-11-12T01:16:54.773Z,37.9
2016-11-12T01:21:58.852Z,37.9
2016-11-12T01:27:02.942Z,37.8
2016-11-12T01:32:07.369Z,37.8
2016-11-12T01:37:11.799Z,37.8
2016-11-12T01:42:15.881Z,37.7
2016-11-12T01:47:20.296Z,37.6
2016-11-12T01:52:24.719Z,37.6
2016-11-12T01:57:28.803Z,37.6
2016-11-12T02:02:32.886Z,37.5
2016-11-12T02:07:36.970Z,37.6
2016-11-12T02:12:41.047Z,37.6
2016-11-12T02:17:45.466Z,37.5
2016-11-12T02:22:49.877Z,37.5
2016-11-12T02:27:54.290Z,37.4
2016-11-12T02:32:58.708Z,37.4
2016-11-12T02:38:02.790Z,37.3
2016-11-12T02:43:06.875Z,37.3
2016-11-12T02:48:10.956Z,37.2
2016-11-12T02:53:15.702Z,37.1
2016-11-12T02:58:20.116Z,37.1
2016-11-12T03:03:24.539Z,37.1
2016-11-12T03:08:28.622Z,36.9
2016-11-12T03:13:33.040Z,36.9
2016-11-12T03:18:37.454Z,36.8
2016-11-12T03:23:41.884Z,36.8
2016-11-12T03:28:46.296Z,36.6
2016-11-12T03:33:50.376Z,36.5
2016-11-12T03:38:54.787Z,36.5
2016-11-12T03:43:59.206Z,36.4
2016-11-12T03:49:03.624Z,36.3
2016-11-12T03:54:08.046Z,36.2
2016-11-12T03:59:12.138Z,36.2
2016-11-12T04:04:16.893Z,36.3
2016-11-12T04:09:20.972Z,36.2
2016-11-12T04:14:25.391Z,36.2
2016-11-12T04:19:29.808Z,36.1
2016-11-12T04:24:33.882Z,36.2
2016-11-12T04:29:38.290Z,36.2
2016-11-12T04:34:42.708Z,36.2
2016-11-12T04:39:47.119Z,36.2
2016-11-12T04:44:51.200Z,36.1
2016-11-12T04:49:55.610Z,36.2
2016-11-12T04:54:59.699Z,36.1
2016-11-12T05:00:03.790Z,36.2
2016-11-12T05:05:07.881Z,36.2
2016-11-12T05:10:12.295Z,36.2
2016-11-12T05:15:16.377Z,36.1
2016-11-12T05:20:20.794Z,36.1
2016-11-12T05:25:24.873Z,36.1
2016-11-12T05:30:28.959Z,36.1
2016-11-12T05:35:33.042Z,36.2
2016-11-12T05:40:37.457Z,36.2
2016-11-12T05:45:41.543Z,36.2
2016-11-12T05:50:45.952Z,36.2
2016-11-12T05:55:50.371Z,36.2
2016-11-12T06:00:54.784Z,36.2
2016-11-12T06:05:58.863Z,36.2
2016-11-12T06:11:02.946Z,36.1
2016-11-12T06:16:07.031Z,36.2
2016-11-12T06:21:11.446Z,36
2016-11-12T06:26:15.859Z,36
2016-11-12T06:31:19.966Z,36
2016-11-12T06:36:24.054Z,36
2016-11-12T06:41:28.490Z,36
2016-11-12T06:46:32.581Z,36.1
2016-11-12T06:51:36.659Z,36.2
2016-11-12T06:56:41.079Z,36.2
2016-11-12T07:01:45.161Z,37
2016-11-12T07:06:49.246Z,37.8
2016-11-12T07:11:53.317Z,38
2016-11-12T07:16:58.102Z,38
2016-11-12T07:22:02.525Z,37.6
2016-11-12T07:27:06.641Z,37.2
2016-11-12T07:32:10.734Z,36.7
2016-11-12T07:37:15.489Z,36.2
2016-11-12T07:42:19.911Z,36.1
2016-11-12T07:47:24.672Z,35.3
2016-11-12T07:52:29.425Z,35
2016-11-12T07:57:34.177Z,34.9
2016-11-12T08:02:39.270Z,35.2
2016-11-12T08:07:43.689Z,35.3
2016-11-12T08:12:48.103Z,35.7
2016-11-12T08:17:52.201Z,35.8
2016-11-12T08:22:56.297Z,36
2016-11-12T08:28:00.386Z,36.1
2016-11-12T08:33:04.802Z,36.1
2016-11-12T08:38:08.882Z,36.1
2016-11-12T08:43:12.965Z,36.1
2016-11-12T08:48:17.043Z,35.9
2016-11-12T08:53:21.133Z,35.8
2016-11-12T08:58:25.221Z,36
2016-11-12T09:03:29.657Z,35.9
2016-11-12T09:08:34.471Z,36.1
2016-11-12T09:13:38.559Z,36.4
2016-11-12T09:18:42.770Z,36.2
2016-11-12T09:23:47.195Z,36.2
2016-11-12T09:28:51.305Z,36.2
2016-11-12T09:33:55.719Z,35.9
2016-11-12T09:39:00.138Z,35.9
2016-11-12T09:44:04.219Z,35.7
2016-11-12T09:49:08.307Z,35.7
2016-11-12T09:54:12.401Z,35.7
2016-11-12T09:59:16.508Z,35.7
2016-11-12T10:04:20.930Z,35.7
2016-11-12T10:09:25.259Z,35.7
2016-11-12T10:14:29.348Z,35.5
2016-11-12T10:19:33.772Z,35.5
2016-11-12T10:24:38.528Z,35.5
2016-11-12T10:29:42.711Z,35.2
2016-11-12T10:34:46.854Z,35
2016-11-12T10:39:51.282Z,35
2016-11-12T10:44:55.370Z,35.2
2016-11-12T10:49:59.457Z,35.6
2016-11-12T10:55:03.550Z,35.6
2016-11-12T11:00:07.637Z,35.6
2016-11-12T11:05:12.059Z,35.7
2016-11-12T11:10:16.480Z,36.2
2016-11-12T11:15:20.571Z,36.3
2016-11-12T11:20:25.327Z,36.5
2016-11-12T11:25:29.855Z,36.5
2016-11-12T11:30:34.284Z,36.6
2016-11-12T11:35:38.367Z,36.7
2016-11-12T11:40:42.790Z,36.4
2016-11-12T11:45:47.218Z,36.4
2016-11-12T11:50:51.298Z,37
2016-11-12T11:55:55.717Z,37.3
2016-11-12T12:01:00.037Z,36.8
2016-11-12T12:06:04.116Z,36.6
2016-11-12T12:11:08.199Z,36.3
2016-11-12T12:16:12.296Z,36.3
2016-11-12T12:21:16.395Z,36.2
2016-11-12T12:26:20.487Z,36.2
2016-11-12T12:31:25.607Z,36.2
2016-11-12T12:36:30.041Z,36.2
2016-11-12T12:41:34.801Z,36.3
2016-11-12T12:46:39.553Z,36.3
2016-11-12T12:51:43.640Z,36.3
2016-11-12T12:56:48.070Z,36.2
2016-11-12T13:01:52.494Z,36.3
2016-11-12T13:06:56.585Z,36.4
2016-11-12T13:12:01.013Z,36.3
2016-11-12T13:17:05.443Z,36.3
2016-11-12T13:22:09.522Z,36.9
2016-11-12T13:27:13.963Z,36.9
2016-11-12T13:32:18.424Z,36.7
2016-11-12T13:37:22.839Z,36.7
2016-11-12T13:42:27.266Z,36.7
2016-11-12T13:47:31.346Z,37.2
2016-11-12T13:52:35.432Z,37.1
2016-11-12T13:57:39.870Z,37
2016-11-12T14:02:44.299Z,37
2016-11-12T14:07:48.386Z,37.8
2016-11-12T14:12:52.805Z,38.2
2016-11-12T14:17:57.571Z,38.3
2016-11-12T14:23:02.331Z,38.4
2016-11-12T14:28:06.772Z,38.3
2016-11-12T14:33:10.861Z,38.3
2016-11-12T14:38:15.169Z,38.2
2016-11-12T14:43:19.257Z,38
2016-11-12T14:48:23.335Z,37.8
2016-11-12T14:53:27.428Z,37.9
2016-11-12T14:58:31.525Z,38.1
2016-11-12T15:03:35.943Z,38.3
2016-11-12T15:08:40.703Z,38.3
2016-11-12T15:13:44.964Z,37.8
2016-11-12T15:18:49.375Z,37.3
2016-11-12T15:23:53.812Z,37
2016-11-12T15:28:58.228Z,37.4
2016-11-12T15:34:02.662Z,37.5
2016-11-12T15:39:06.772Z,37.4
2016-11-12T15:44:10.854Z,37.1
2016-11-12T15:49:15.149Z,36.9
2016-11-12T15:54:19.572Z,36.8
2016-11-12T15:59:23.992Z,36.4
2016-11-12T16:04:28.072Z,36.4
2016-11-12T16:09:32.489Z,36.3
2016-11-12T16:14:36.569Z,36.2
2016-11-12T16:19:40.653Z,36.2
2016-11-12T16:24:45.067Z,36.3
2016-11-12T16:29:49.163Z,36.3
2016-11-12T16:34:53.269Z,36.2
2016-11-12T16:39:57.344Z,36.3
2016-11-12T16:45:01.760Z,36
2016-11-12T16:50:05.842Z,36
2016-11-12T16:55:10.261Z,36.1
2016-11-12T17:00:14.675Z,36
2016-11-12T17:05:19.107Z,36
2016-11-12T17:10:23.189Z,35.8
2016-11-12T17:15:27.270Z,35.8
2016-11-12T17:20:31.355Z,35.8
2016-11-12T17:25:35.438Z,35.8
2016-11-12T17:30:39.864Z,35.8
2016-11-12T17:35:43.940Z,35.8
2016-11-12T17:40:48.357Z,35.8
2016-11-12T17:45:52.815Z,36.6
2016-11-12T17:50:57.565Z,37.5
2016-11-12T17:56:02.223Z,37.9
2016-11-12T18:01:06.835Z,37
2016-11-12T18:06:10.917Z,35.9
2016-11-12T18:11:15.683Z,35.3
2016-11-12T18:16:20.103Z,35.1
2016-11-12T18:21:24.516Z,35.3
2016-11-12T18:26:28.598Z,36.3
2016-11-12T18:31:32.678Z,36.7
2016-11-12T18:36:37.766Z,37.1
2016-11-12T18:41:42.187Z,37.2
2016-11-12T18:46:46.937Z,37.5
2016-11-12T18:51:51.368Z,37.8
2016-11-12T18:56:55.452Z,38
2016-11-12T19:01:59.525Z,38.2
2016-11-12T19:07:03.950Z,38.4
2016-11-12T19:12:08.368Z,38.4
2016-11-12T19:17:12.452Z,38.4
2016-11-12T19:22:16.870Z,38.4
2016-11-12T19:27:21.286Z,38.3
2016-11-12T19:32:25.708Z,38.1
2016-11-12T19:37:29.798Z,37.9
2016-11-12T19:42:33.885Z,37.9
2016-11-12T19:47:37.973Z,37.6
2016-11-12T19:52:42.388Z,37.6
2016-11-12T19:57:46.471Z,37.6
2016-11-12T20:02:51.226Z,37.6
2016-11-12T20:07:55.644Z,37.5
2016-11-12T20:12:59.722Z,37.4
2016-11-12T20:18:03.808Z,37.2
2016-11-12T20:23:07.892Z,37.1
2016-11-12T20:28:12.304Z,37.1
2016-11-12T20:33:17.013Z,37.1
2016-11-12T20:38:21.097Z,37.2
2016-11-12T20:43:25.177Z,37.3
2016-11-12T20:48:29.262Z,37.2
2016-11-12T20:53:33.347Z,37.2
2016-11-12T20:58:37.762Z,37.1
2016-11-12T21:03:42.178Z,36.9
2016-11-12T21:08:46.633Z,37
2016-11-12T21:13:50.721Z,36.8
2016-11-12T21:18:55.156Z,36.7
2016-11-12T21:23:59.234Z,36.6
2016-11-12T21:29:03.525Z,36.6
2016-11-12T21:34:08.267Z,36.5
2016-11-12T21:39:12.351Z,36.6
2016-11-12T21:44:17.436Z,36.5
2016-11-12T21:49:21.514Z,36.6
2016-11-12T21:54:25.925Z,36.6
2016-11-12T21:59:30.674Z,36.6
2016-11-12T22:04:34.754Z,36.7
2016-11-12T22:09:39.167Z,36.6
2016-11-12T22:14:43.924Z,36.7
2016-11-12T22:19:48.350Z,36.7
2016-11-12T22:24:52.514Z,36.7
2016-11-12T22:29:56.607Z,36.8
2016-11-12T22:35:01.033Z,36.9
2016-11-12T22:40:05.441Z,36.9
2016-11-12T22:45:09.857Z,36.8
2016-11-12T22:50:14.017Z,36.6
2016-11-12T22:55:18.130Z,36.6
2016-11-12T23:00:22.515Z,36.5
2016-11-12T23:05:26.607Z,36.5
2016-11-12T23:10:30.700Z,36.4
2016-11-12T23:15:35.129Z,36.4
2016-11-12T23:20:39.219Z,36.3
2016-11-12T23:25:43.306Z,36.3
2016-11-12T23:30:47.385Z,36.3
2016-11-12T23:35:51.806Z,36.2
2016-11-12T23:40:56.566Z,36.2
2016-11-12T23:46:01.312Z,36.2
2016-11-12T23:51:05.738Z,36.1
2016-11-12T23:56:09.831Z,36.1
